sensor_id;sensor_type;location;lat;lon;timestamp;pressure;altitude;pressure_sealevel;temperature;humidity
9415;BME280;4746;35.664;139.738;2024-03-22T00:00:22;100721.53;;;10.29;23.71
9415;BME280;4746;35.664;139.738;2024-03-22T00:02:49;100724.16;;;10.32;23.70
9415;BME280;4746;35.664;139.738;2024-03-22T00:05:17;100730.22;;;10.38;23.87
9415;BME280;4746;35.664;139.738;2024-03-22T00:07:46;100720.03;;;10.41;23.88
9415;BME280;4746;35.664;139.738;2024-03-22T00:10:14;100726.88;;;10.42;23.86
9415;BME280;4746;35.664;139.738;2024-03-22T00:12:41;100724.34;;;10.43;23.64
9415;BME280;4746;35.664;139.738;2024-03-22T00:15:09;100725.97;;;10.38;23.51
9415;BME280;4746;35.664;139.738;2024-03-22T00:17:37;100725.09;;;10.37;23.86
9415;BME280;4746;35.664;139.738;2024-03-22T00:20:05;100727.72;;;10.41;24.24
9415;BME280;4746;35.664;139.738;2024-03-22T00:22:33;100714.13;;;10.45;24.01
9415;BME280;4746;35.664;139.738;2024-03-22T00:25:00;100720.25;;;10.54;23.16
9415;BME280;4746;35.664;139.738;2024-03-22T00:27:28;100719.59;;;10.67;23.96
9415;BME280;4746;35.664;139.738;2024-03-22T00:29:56;100717.97;;;10.75;23.34
9415;BME280;4746;35.664;139.738;2024-03-22T00:32:23;100729.09;;;10.76;23.73
9415;BME280;4746;35.664;139.738;2024-03-22T00:34:51;100725.66;;;10.75;23.31
9415;BME280;4746;35.664;139.738;2024-03-22T00:37:18;100719.72;;;10.76;23.31
9415;BME280;4746;35.664;139.738;2024-03-22T00:39:46;100725.66;;;10.74;23.45
9415;BME280;4746;35.664;139.738;2024-03-22T00:42:13;100712.81;;;10.72;23.26
9415;BME280;4746;35.664;139.738;2024-03-22T00:44:41;100685.53;;;10.74;23.37
9415;BME280;4746;35.664;139.738;2024-03-22T00:47:09;100713.00;;;10.84;23.36
9415;BME280;4746;35.664;139.738;2024-03-22T00:49:38;100690.00;;;10.89;23.62
9415;BME280;4746;35.664;139.738;2024-03-22T00:52:08;100691.78;;;10.96;23.12
9415;BME280;4746;35.664;139.738;2024-03-22T00:54:36;100713.97;;;10.92;22.98
9415;BME280;4746;35.664;139.738;2024-03-22T00:57:06;100713.91;;;10.89;22.95
9415;BME280;4746;35.664;139.738;2024-03-22T00:59:33;100709.69;;;10.94;23.56
9415;BME280;4746;35.664;139.738;2024-03-22T01:02:01;100710.66;;;11.01;23.17
9415;BME280;4746;35.664;139.738;2024-03-22T01:04:28;100706.44;;;11.04;23.17
9415;BME280;4746;35.664;139.738;2024-03-22T01:06:56;100707.28;;;11.05;22.70
9415;BME280;4746;35.664;139.738;2024-03-22T01:09:24;100684.22;;;11.06;22.83
9415;BME280;4746;35.664;139.738;2024-03-22T01:11:52;100712.44;;;11.07;23.38
9415;BME280;4746;35.664;139.738;2024-03-22T01:14:22;100702.38;;;11.21;23.16
9415;BME280;4746;35.664;139.738;2024-03-22T01:16:53;100706.75;;;11.31;22.86
9415;BME280;4746;35.664;139.738;2024-03-22T01:19:22;100702.41;;;11.25;22.94
9415;BME280;4746;35.664;139.738;2024-03-22T01:21:50;100713.56;;;11.26;22.53
9415;BME280;4746;35.664;139.738;2024-03-22T01:24:19;100681.13;;;11.31;22.81
9415;BME280;4746;35.664;139.738;2024-03-22T01:26:46;100723.91;;;11.35;22.49
9415;BME280;4746;35.664;139.738;2024-03-22T01:29:17;100712.84;;;11.39;22.77
9415;BME280;4746;35.664;139.738;2024-03-22T01:31:44;100706.91;;;11.41;22.60
9415;BME280;4746;35.664;139.738;2024-03-22T01:34:12;100714.72;;;11.52;22.61
9415;BME280;4746;35.664;139.738;2024-03-22T01:36:40;100708.81;;;11.59;22.42
9415;BME280;4746;35.664;139.738;2024-03-22T01:39:09;100694.38;;;11.68;22.11
9415;BME280;4746;35.664;139.738;2024-03-22T01:41:37;100696.97;;;11.70;21.99
9415;BME280;4746;35.664;139.738;2024-03-22T01:44:05;100710.75;;;11.80;22.33
9415;BME280;4746;35.664;139.738;2024-03-22T01:46:35;100673.19;;;11.85;22.12
9415;BME280;4746;35.664;139.738;2024-03-22T01:49:03;100677.50;;;11.91;22.07
9415;BME280;4746;35.664;139.738;2024-03-22T01:51:30;100693.72;;;11.88;21.92
9415;BME280;4746;35.664;139.738;2024-03-22T01:54:04;100698.91;;;11.91;22.02
9415;BME280;4746;35.664;139.738;2024-03-22T01:56:32;100695.47;;;11.92;21.73
9415;BME280;4746;35.664;139.738;2024-03-22T01:58:59;100693.78;;;11.94;21.69
9415;BME280;4746;35.664;139.738;2024-03-22T02:01:27;100693.84;;;11.97;21.95
9415;BME280;4746;35.664;139.738;2024-03-22T02:03:55;100693.00;;;12.04;21.40
9415;BME280;4746;35.664;139.738;2024-03-22T02:06:25;100687.06;;;12.08;21.31
9415;BME280;4746;35.664;139.738;2024-03-22T02:08:54;100685.41;;;12.13;21.77
9415;BME280;4746;35.664;139.738;2024-03-22T02:11:24;100670.03;;;12.19;21.50
9415;BME280;4746;35.664;139.738;2024-03-22T02:13:53;100690.66;;;12.28;21.71
9415;BME280;4746;35.664;139.738;2024-03-22T02:16:20;100693.31;;;12.37;21.83
9415;BME280;4746;35.664;139.738;2024-03-22T02:18:48;100681.38;;;12.48;21.83
9415;BME280;4746;35.664;139.738;2024-03-22T02:21:16;100675.47;;;12.61;22.02
9415;BME280;4746;35.664;139.738;2024-03-22T02:23:43;100676.41;;;12.72;21.46
9415;BME280;4746;35.664;139.738;2024-03-22T02:26:11;100672.09;;;12.74;21.50
9415;BME280;4746;35.664;139.738;2024-03-22T02:28:39;100670.47;;;12.85;21.29
9415;BME280;4746;35.664;139.738;2024-03-22T02:31:06;100671.38;;;12.91;21.01
9415;BME280;4746;35.664;139.738;2024-03-22T02:33:34;100655.16;;;13.03;20.70
9415;BME280;4746;35.664;139.738;2024-03-22T02:36:01;100667.16;;;13.07;20.73
9415;BME280;4746;35.664;139.738;2024-03-22T02:38:29;100653.47;;;13.11;20.78
9415;BME280;4746;35.664;139.738;2024-03-22T02:40:59;100645.78;;;13.19;20.61
9415;BME280;4746;35.664;139.738;2024-03-22T02:43:26;100642.38;;;13.22;20.77
9415;BME280;4746;35.664;139.738;2024-03-22T02:45:54;100643.22;;;13.28;20.62
9415;BME280;4746;35.664;139.738;2024-03-22T02:48:22;100651.84;;;13.39;20.90
9415;BME280;4746;35.664;139.738;2024-03-22T02:50:49;100636.41;;;13.50;20.57
9415;BME280;4746;35.664;139.738;2024-03-22T02:53:22;100627.00;;;13.59;20.16
9415;BME280;4746;35.664;139.738;2024-03-22T02:55:50;100626.13;;;13.71;20.13
9415;BME280;4746;35.664;139.738;2024-03-22T02:58:20;100627.88;;;13.84;20.16
9415;BME280;4746;35.664;139.738;2024-03-22T03:00:49;100620.16;;;14.00;20.26
9415;BME280;4746;35.664;139.738;2024-03-22T03:03:17;100606.41;;;14.22;20.07
9415;BME280;4746;35.664;139.738;2024-03-22T03:05:45;100609.84;;;14.31;19.74
9415;BME280;4746;35.664;139.738;2024-03-22T03:08:14;100610.69;;;14.35;19.41
9415;BME280;4746;35.664;139.738;2024-03-22T03:10:41;100618.41;;;14.51;19.78
9415;BME280;4746;35.664;139.738;2024-03-22T03:13:10;100619.22;;;14.63;19.49
9415;BME280;4746;35.664;139.738;2024-03-22T03:15:38;100614.03;;;14.75;19.75
9415;BME280;4746;35.664;139.738;2024-03-22T03:18:05;100625.09;;;15.00;19.58
9415;BME280;4746;35.664;139.738;2024-03-22T03:20:33;100609.63;;;15.01;19.06
9415;BME280;4746;35.664;139.738;2024-03-22T03:23:01;100610.47;;;15.03;19.04
9415;BME280;4746;35.664;139.738;2024-03-22T03:25:28;100610.47;;;15.06;18.95
9415;BME280;4746;35.664;139.738;2024-03-22T03:27:56;100612.97;;;15.17;18.77
9415;BME280;4746;35.664;139.738;2024-03-22T03:30:26;100609.53;;;15.19;18.29
9415;BME280;4746;35.664;139.738;2024-03-22T03:32:56;100578.59;;;15.13;18.58
9415;BME280;4746;35.664;139.738;2024-03-22T03:35:24;100589.75;;;15.15;18.53
9415;BME280;4746;35.664;139.738;2024-03-22T03:37:53;100586.25;;;15.34;18.38
9415;BME280;4746;35.664;139.738;2024-03-22T03:40:20;100563.75;;;15.46;18.36
9415;BME280;4746;35.664;139.738;2024-03-22T03:42:51;100563.75;;;15.51;18.43
9415;BME280;4746;35.664;139.738;2024-03-22T03:45:19;100571.38;;;15.64;18.06
9415;BME280;4746;35.664;139.738;2024-03-22T03:47:47;100552.31;;;15.82;18.59
9415;BME280;4746;35.664;139.738;2024-03-22T03:50:14;100556.44;;;15.98;18.55
9415;BME280;4746;35.664;139.738;2024-03-22T03:52:42;100565.81;;;16.07;18.90
9415;BME280;4746;35.664;139.738;2024-03-22T03:55:09;100521.72;;;16.28;18.67
9415;BME280;4746;35.664;139.738;2024-03-22T03:57:39;100536.97;;;16.49;18.55
9415;BME280;4746;35.664;139.738;2024-03-22T04:00:07;100541.91;;;16.70;18.07
9415;BME280;4746;35.664;139.738;2024-03-22T04:02:35;100524.41;;;16.87;17.71
9415;BME280;4746;35.664;139.738;2024-03-22T04:05:02;100541.44;;;17.03;18.24
9415;BME280;4746;35.664;139.738;2024-03-22T04:07:30;100520.44;;;17.22;17.73
9415;BME280;4746;35.664;139.738;2024-03-22T04:09:59;100541.84;;;17.38;17.24
9415;BME280;4746;35.664;139.738;2024-03-22T04:12:30;100526.13;;;17.48;17.67
9415;BME280;4746;35.664;139.738;2024-03-22T04:14:59;100506.00;;;17.63;16.44
9415;BME280;4746;35.664;139.738;2024-03-22T04:17:27;100524.91;;;17.70;15.83
9415;BME280;4746;35.664;139.738;2024-03-22T04:19:56;100522.03;;;17.86;15.93
9415;BME280;4746;35.664;139.738;2024-03-22T04:22:23;100527.31;;;17.80;15.01
9415;BME280;4746;35.664;139.738;2024-03-22T04:24:51;100530.97;;;17.67;15.15
9415;BME280;4746;35.664;139.738;2024-03-22T04:27:18;100505.16;;;17.61;15.46
9415;BME280;4746;35.664;139.738;2024-03-22T04:29:48;100511.09;;;17.68;15.58
9415;BME280;4746;35.664;139.738;2024-03-22T04:32:16;100493.44;;;17.89;15.53
9415;BME280;4746;35.664;139.738;2024-03-22T04:34:44;100492.03;;;18.18;15.58
9415;BME280;4746;35.664;139.738;2024-03-22T04:37:11;100496.13;;;18.30;15.52
9415;BME280;4746;35.664;139.738;2024-03-22T04:39:42;100499.09;;;18.56;15.49
9415;BME280;4746;35.664;139.738;2024-03-22T04:42:13;100498.88;;;18.65;15.05
9415;BME280;4746;35.664;139.738;2024-03-22T04:44:40;100496.41;;;18.60;15.34
9415;BME280;4746;35.664;139.738;2024-03-22T04:47:08;100505.34;;;18.86;13.99
9415;BME280;4746;35.664;139.738;2024-03-22T04:49:35;100490.09;;;19.46;14.17
9415;BME280;4746;35.664;139.738;2024-03-22T04:52:03;100484.19;;;20.07;13.60
9415;BME280;4746;35.664;139.738;2024-03-22T04:54:31;100499.53;;;20.48;13.21
9415;BME280;4746;35.664;139.738;2024-03-22T04:57:00;100481.34;;;20.75;13.20
9415;BME280;4746;35.664;139.738;2024-03-22T04:59:28;100495.19;;;20.77;13.17
9415;BME280;4746;35.664;139.738;2024-03-22T05:01:55;100507.84;;;20.60;12.75
9415;BME280;4746;35.664;139.738;2024-03-22T05:04:24;100512.00;;;20.66;13.03
9415;BME280;4746;35.664;139.738;2024-03-22T05:06:51;100516.53;;;20.59;12.46
9415;BME280;4746;35.664;139.738;2024-03-22T05:09:19;100523.19;;;20.39;12.89
9415;BME280;4746;35.664;139.738;2024-03-22T05:11:46;100517.88;;;20.43;13.51
9415;BME280;4746;35.664;139.738;2024-03-22T05:14:19;100521.47;;;20.08;13.81
9415;BME280;4746;35.664;139.738;2024-03-22T05:16:47;100515.47;;;19.71;13.72
9415;BME280;4746;35.664;139.738;2024-03-22T05:19:15;100512.06;;;19.67;14.15
9415;BME280;4746;35.664;139.738;2024-03-22T05:21:42;100510.75;;;21.35;13.29
9415;BME280;4746;35.664;139.738;2024-03-22T05:24:10;100495.06;;;23.69;11.96
9415;BME280;4746;35.664;139.738;2024-03-22T05:26:37;100509.75;;;25.09;11.39
9415;BME280;4746;35.664;139.738;2024-03-22T05:29:05;100510.91;;;25.74;11.12
9415;BME280;4746;35.664;139.738;2024-03-22T05:31:46;100507.34;;;26.43;11.00
9415;BME280;4746;35.664;139.738;2024-03-22T05:34:15;100503.03;;;27.20;10.64
9415;BME280;4746;35.664;139.738;2024-03-22T05:36:44;100505.88;;;27.46;10.51
9415;BME280;4746;35.664;139.738;2024-03-22T05:39:13;100502.59;;;27.43;10.35
9415;BME280;4746;35.664;139.738;2024-03-22T05:41:41;100505.34;;;28.00;10.50
9415;BME280;4746;35.664;139.738;2024-03-22T05:44:09;100502.22;;;29.06;10.24
9415;BME280;4746;35.664;139.738;2024-03-22T05:46:37;100497.47;;;29.39;9.40
9415;BME280;4746;35.664;139.738;2024-03-22T05:49:04;100497.88;;;29.05;9.47
9415;BME280;4746;35.664;139.738;2024-03-22T05:51:32;100504.97;;;29.05;9.56
9415;BME280;4746;35.664;139.738;2024-03-22T05:54:01;100499.72;;;29.57;9.58
9415;BME280;4746;35.664;139.738;2024-03-22T05:56:29;100517.34;;;30.34;9.08
9415;BME280;4746;35.664;139.738;2024-03-22T05:58:59;100488.56;;;30.67;8.91
9415;BME280;4746;35.664;139.738;2024-03-22T06:01:27;100521.13;;;30.80;8.85
9415;BME280;4746;35.664;139.738;2024-03-22T06:03:54;100512.03;;;30.84;9.37
9415;BME280;4746;35.664;139.738;2024-03-22T06:06:23;100505.16;;;30.82;9.23
9415;BME280;4746;35.664;139.738;2024-03-22T06:08:53;100499.91;;;31.17;9.21
9415;BME280;4746;35.664;139.738;2024-03-22T06:11:21;100510.13;;;31.58;8.75
9415;BME280;4746;35.664;139.738;2024-03-22T06:13:49;100488.44;;;32.32;8.84
9415;BME280;4746;35.664;139.738;2024-03-22T06:16:18;100481.97;;;32.69;8.06
9415;BME280;4746;35.664;139.738;2024-03-22T06:18:45;100517.97;;;32.84;8.49
9415;BME280;4746;35.664;139.738;2024-03-22T06:21:13;100515.06;;;32.76;8.10
9415;BME280;4746;35.664;139.738;2024-03-22T06:23:41;100514.91;;;32.77;8.03
9415;BME280;4746;35.664;139.738;2024-03-22T06:26:09;100509.84;;;33.07;7.95
9415;BME280;4746;35.664;139.738;2024-03-22T06:28:37;100510.41;;;33.75;8.29
9415;BME280;4746;35.664;139.738;2024-03-22T06:31:04;100508.19;;;33.59;8.39
9415;BME280;4746;35.664;139.738;2024-03-22T06:33:32;100528.78;;;33.03;8.31
9415;BME280;4746;35.664;139.738;2024-03-22T06:36:00;100535.41;;;32.53;7.97
9415;BME280;4746;35.664;139.738;2024-03-22T06:38:27;100529.47;;;32.50;8.37
9415;BME280;4746;35.664;139.738;2024-03-22T06:40:55;100533.38;;;32.57;8.63
9415;BME280;4746;35.664;139.738;2024-03-22T06:43:23;100538.72;;;32.90;8.28
9415;BME280;4746;35.664;139.738;2024-03-22T06:45:51;100531.72;;;32.89;8.09
9415;BME280;4746;35.664;139.738;2024-03-22T06:48:18;100541.91;;;32.39;8.05
9415;BME280;4746;35.664;139.738;2024-03-22T06:50:48;100544.31;;;31.96;7.97
9415;BME280;4746;35.664;139.738;2024-03-22T06:53:18;100549.88;;;32.04;8.45
9415;BME280;4746;35.664;139.738;2024-03-22T06:55:46;100550.22;;;32.34;8.15
9415;BME280;4746;35.664;139.738;2024-03-22T06:58:13;100539.69;;;32.89;7.95
9415;BME280;4746;35.664;139.738;2024-03-22T07:00:41;100544.25;;;32.87;8.08
9415;BME280;4746;35.664;139.738;2024-03-22T07:03:09;100542.56;;;32.75;8.05
9415;BME280;4746;35.664;139.738;2024-03-22T07:05:36;100552.56;;;32.15;8.00
9415;BME280;4746;35.664;139.738;2024-03-22T07:08:04;100559.22;;;31.97;8.55
9415;BME280;4746;35.664;139.738;2024-03-22T07:10:32;100564.16;;;31.68;8.41
9415;BME280;4746;35.664;139.738;2024-03-22T07:13:00;100562.19;;;31.59;8.65
9415;BME280;4746;35.664;139.738;2024-03-22T07:15:28;100580.19;;;31.89;8.75
9415;BME280;4746;35.664;139.738;2024-03-22T07:17:59;100573.31;;;31.64;8.50
9415;BME280;4746;35.664;139.738;2024-03-22T07:20:27;100585.38;;;31.32;8.07
9415;BME280;4746;35.664;139.738;2024-03-22T07:22:57;100588.28;;;31.04;8.38
9415;BME280;4746;35.664;139.738;2024-03-22T07:25:24;100587.13;;;31.08;8.61
9415;BME280;4746;35.664;139.738;2024-03-22T07:27:54;100596.97;;;31.06;9.17
9415;BME280;4746;35.664;139.738;2024-03-22T07:30:21;100589.56;;;30.99;8.35
9415;BME280;4746;35.664;139.738;2024-03-22T07:32:49;100587.66;;;30.51;8.61
9415;BME280;4746;35.664;139.738;2024-03-22T07:35:17;100594.31;;;30.18;8.79
9415;BME280;4746;35.664;139.738;2024-03-22T07:37:44;100587.97;;;30.08;9.30
9415;BME280;4746;35.664;139.738;2024-03-22T07:40:12;100595.97;;;30.32;9.16
9415;BME280;4746;35.664;139.738;2024-03-22T07:42:40;100599.06;;;30.51;8.97
9415;BME280;4746;35.664;139.738;2024-03-22T07:45:10;100600.88;;;30.63;9.40
9415;BME280;4746;35.664;139.738;2024-03-22T07:47:38;100613.59;;;30.71;8.94
9415;BME280;4746;35.664;139.738;2024-03-22T07:50:09;100612.63;;;30.84;8.90
9415;BME280;4746;35.664;139.738;2024-03-22T07:52:37;100616.56;;;30.91;8.46
9415;BME280;4746;35.664;139.738;2024-03-22T07:55:05;100607.31;;;31.09;9.00
9415;BME280;4746;35.664;139.738;2024-03-22T07:57:33;100623.22;;;30.97;9.13
9415;BME280;4746;35.664;139.738;2024-03-22T08:00:01;100622.19;;;30.99;9.06
9415;BME280;4746;35.664;139.738;2024-03-22T08:02:31;100626.81;;;30.58;8.68
9415;BME280;4746;35.664;139.738;2024-03-22T08:04:59;100636.25;;;29.83;9.35
9415;BME280;4746;35.664;139.738;2024-03-22T08:07:26;100640.78;;;28.99;9.58
9415;BME280;4746;35.664;139.738;2024-03-22T08:09:54;100646.72;;;27.86;9.77
9415;BME280;4746;35.664;139.738;2024-03-22T08:12:23;100654.00;;;26.01;10.44
9415;BME280;4746;35.664;139.738;2024-03-22T08:14:51;100657.47;;;24.09;11.62
9415;BME280;4746;35.664;139.738;2024-03-22T08:17:19;100659.75;;;22.58;12.13
9415;BME280;4746;35.664;139.738;2024-03-22T08:19:46;100668.66;;;21.43;12.92
9415;BME280;4746;35.664;139.738;2024-03-22T08:22:14;100670.25;;;20.56;13.46
9415;BME280;4746;35.664;139.738;2024-03-22T08:24:43;100668.50;;;19.87;14.13
9415;BME280;4746;35.664;139.738;2024-03-22T08:27:11;100684.38;;;19.36;14.15
9415;BME280;4746;35.664;139.738;2024-03-22T08:29:40;100683.72;;;18.81;14.55
9415;BME280;4746;35.664;139.738;2024-03-22T08:32:08;100693.31;;;18.30;14.83
9415;BME280;4746;35.664;139.738;2024-03-22T08:34:36;100693.81;;;17.97;15.89
9415;BME280;4746;35.664;139.738;2024-03-22T08:37:03;100709.78;;;17.70;16.15
9415;BME280;4746;35.664;139.738;2024-03-22T08:39:31;100714.41;;;17.49;15.91
9415;BME280;4746;35.664;139.738;2024-03-22T08:41:59;100709.50;;;17.27;16.28
9415;BME280;4746;35.664;139.738;2024-03-22T08:44:27;100717.50;;;17.03;16.77
9415;BME280;4746;35.664;139.738;2024-03-22T08:46:55;100721.22;;;16.78;16.91
9415;BME280;4746;35.664;139.738;2024-03-22T08:49:22;100728.34;;;16.55;16.98
9415;BME280;4746;35.664;139.738;2024-03-22T08:51:51;100726.75;;;16.36;17.06
9415;BME280;4746;35.664;139.738;2024-03-22T08:54:18;100742.44;;;16.15;17.39
9415;BME280;4746;35.664;139.738;2024-03-22T08:56:46;100738.28;;;15.94;17.69
9415;BME280;4746;35.664;139.738;2024-03-22T08:59:16;100740.09;;;15.75;17.68
9415;BME280;4746;35.664;139.738;2024-03-22T09:01:49;100736.72;;;15.63;17.77
9415;BME280;4746;35.664;139.738;2024-03-22T09:04:20;100734.19;;;15.55;17.86
9415;BME280;4746;35.664;139.738;2024-03-22T09:06:51;100727.34;;;15.47;17.80
9415;BME280;4746;35.664;139.738;2024-03-22T09:09:18;100742.00;;;15.39;17.82
9415;BME280;4746;35.664;139.738;2024-03-22T09:11:46;100744.63;;;15.30;18.00
9415;BME280;4746;35.664;139.738;2024-03-22T09:14:14;100751.53;;;15.22;17.89
9415;BME280;4746;35.664;139.738;2024-03-22T09:16:41;100761.84;;;15.13;18.00
9415;BME280;4746;35.664;139.738;2024-03-22T09:19:09;100766.16;;;15.05;18.27
9415;BME280;4746;35.664;139.738;2024-03-22T09:21:38;100788.53;;;14.97;18.07
9415;BME280;4746;35.664;139.738;2024-03-22T09:24:06;100792.00;;;14.89;17.94
9415;BME280;4746;35.664;139.738;2024-03-22T09:26:33;100793.72;;;14.82;18.13
9415;BME280;4746;35.664;139.738;2024-03-22T09:29:01;100798.03;;;14.77;18.45
9415;BME280;4746;35.664;139.738;2024-03-22T09:31:28;100801.47;;;14.73;18.57
9415;BME280;4746;35.664;139.738;2024-03-22T09:33:57;100806.63;;;14.70;18.63
9415;BME280;4746;35.664;139.738;2024-03-22T09:36:25;100816.94;;;14.67;18.57
9415;BME280;4746;35.664;139.738;2024-03-22T09:38:52;100816.94;;;14.64;18.46
9415;BME280;4746;35.664;139.738;2024-03-22T09:41:27;100819.50;;;14.61;18.44
9415;BME280;4746;35.664;139.738;2024-03-22T09:44:00;100836.72;;;14.54;18.68
9415;BME280;4746;35.664;139.738;2024-03-22T09:46:30;100823.81;;;14.48;18.81
9415;BME280;4746;35.664;139.738;2024-03-22T09:48:59;100830.69;;;14.43;18.41
9415;BME280;4746;35.664;139.738;2024-03-22T09:51:29;100836.69;;;14.36;18.69
9415;BME280;4746;35.664;139.738;2024-03-22T09:53:57;100830.66;;;14.28;18.53
9415;BME280;4746;35.664;139.738;2024-03-22T09:56:27;100835.81;;;14.25;18.72
9415;BME280;4746;35.664;139.738;2024-03-22T09:58:57;100846.09;;;14.22;18.80
9415;BME280;4746;35.664;139.738;2024-03-22T10:01:26;100842.69;;;14.20;18.90
9415;BME280;4746;35.664;139.738;2024-03-22T10:03:55;100852.13;;;14.19;18.68
9415;BME280;4746;35.664;139.738;2024-03-22T10:06:23;100852.13;;;14.18;18.84
9415;BME280;4746;35.664;139.738;2024-03-22T10:08:52;100844.38;;;14.18;18.95
9415;BME280;4746;35.664;139.738;2024-03-22T10:11:20;100836.66;;;14.18;18.70
9415;BME280;4746;35.664;139.738;2024-03-22T10:13:48;100853.81;;;14.17;18.61
9415;BME280;4746;35.664;139.738;2024-03-22T10:16:18;100858.97;;;14.14;18.64
9415;BME280;4746;35.664;139.738;2024-03-22T10:18:45;100861.56;;;14.13;18.80
9415;BME280;4746;35.664;139.738;2024-03-22T10:21:18;100849.50;;;14.15;18.88
9415;BME280;4746;35.664;139.738;2024-03-22T10:23:47;100857.25;;;14.13;18.91
9415;BME280;4746;35.664;139.738;2024-03-22T10:26:17;100867.56;;;14.10;18.72
9415;BME280;4746;35.664;139.738;2024-03-22T10:28:46;100866.69;;;14.10;18.55
9415;BME280;4746;35.664;139.738;2024-03-22T10:31:14;100870.06;;;14.09;18.50
9415;BME280;4746;35.664;139.738;2024-03-22T10:33:44;100867.50;;;14.09;18.74
9415;BME280;4746;35.664;139.738;2024-03-22T10:36:13;100874.38;;;14.08;18.86
9415;BME280;4746;35.664;139.738;2024-03-22T10:38:40;100887.31;;;14.10;18.58
9415;BME280;4746;35.664;139.738;2024-03-22T10:41:09;100883.88;;;14.09;18.66
9415;BME280;4746;35.664;139.738;2024-03-22T10:43:37;100895.91;;;14.12;18.79
9415;BME280;4746;35.664;139.738;2024-03-22T10:46:07;100897.63;;;14.13;18.60
9415;BME280;4746;35.664;139.738;2024-03-22T10:48:36;100894.19;;;14.11;18.74
9415;BME280;4746;35.664;139.738;2024-03-22T10:51:05;100887.31;;;14.13;18.82
9415;BME280;4746;35.664;139.738;2024-03-22T10:53:34;100896.78;;;14.15;18.84
9415;BME280;4746;35.664;139.738;2024-03-22T10:56:04;100889.06;;;14.15;18.87
9415;BME280;4746;35.664;139.738;2024-03-22T10:58:39;100890.75;;;14.12;19.11
9415;BME280;4746;35.664;139.738;2024-03-22T11:01:27;100897.63;;;14.13;18.71
9415;BME280;4746;35.664;139.738;2024-03-22T11:04:07;100901.00;;;14.09;19.20
9415;BME280;4746;35.664;139.738;2024-03-22T11:06:40;100894.16;;;14.08;18.94
9415;BME280;4746;35.664;139.738;2024-03-22T11:09:09;100885.50;;;14.03;19.00
9415;BME280;4746;35.664;139.738;2024-03-22T11:11:41;100880.38;;;14.00;19.26
9415;BME280;4746;35.664;139.738;2024-03-22T11:14:09;100880.34;;;13.97;19.12
9415;BME280;4746;35.664;139.738;2024-03-22T11:16:36;100889.78;;;13.96;19.09
9415;BME280;4746;35.664;139.738;2024-03-22T11:19:06;100890.69;;;13.98;19.34
9415;BME280;4746;35.664;139.738;2024-03-22T11:21:34;100887.22;;;13.98;19.31
9415;BME280;4746;35.664;139.738;2024-03-22T11:24:02;100888.94;;;13.99;19.74
9415;BME280;4746;35.664;139.738;2024-03-22T11:26:33;100894.13;;;14.05;19.10
9415;BME280;4746;35.664;139.738;2024-03-22T11:29:06;100901.97;;;14.20;19.61
9415;BME280;4746;35.664;139.738;2024-03-22T11:31:35;100889.94;;;14.28;19.00
9415;BME280;4746;35.664;139.738;2024-03-22T11:34:04;100902.81;;;14.22;19.32
9415;BME280;4746;35.664;139.738;2024-03-22T11:36:36;100894.22;;;14.20;19.22
9415;BME280;4746;35.664;139.738;2024-03-22T11:39:12;100907.09;;;14.18;19.46
9415;BME280;4746;35.664;139.738;2024-03-22T11:41:50;100905.38;;;14.19;19.74
9415;BME280;4746;35.664;139.738;2024-03-22T11:44:18;100918.28;;;14.22;19.43
9415;BME280;4746;35.664;139.738;2024-03-22T11:46:46;100912.28;;;14.21;19.81
9415;BME280;4746;35.664;139.738;2024-03-22T11:49:19;100913.16;;;14.31;19.61
9415;BME280;4746;35.664;139.738;2024-03-22T11:51:58;100918.34;;;14.37;19.65
9415;BME280;4746;35.664;139.738;2024-03-22T11:54:28;100916.59;;;14.37;19.49
9415;BME280;4746;35.664;139.738;2024-03-22T11:56:57;100911.44;;;14.31;19.57
9415;BME280;4746;35.664;139.738;2024-03-22T11:59:25;100920.03;;;14.29;19.87
9415;BME280;4746;35.664;139.738;2024-03-22T12:01:55;100927.75;;;14.32;19.78
9415;BME280;4746;35.664;139.738;2024-03-22T12:04:24;100932.06;;;14.33;20.16
9415;BME280;4746;35.664;139.738;2024-03-22T12:06:57;100927.75;;;14.29;20.00
9415;BME280;4746;35.664;139.738;2024-03-22T12:09:27;100927.72;;;14.20;20.22
9415;BME280;4746;35.664;139.738;2024-03-22T12:11:56;100920.78;;;14.11;20.14
9415;BME280;4746;35.664;139.738;2024-03-22T12:14:24;100912.16;;;14.05;20.19
9415;BME280;4746;35.664;139.738;2024-03-22T12:16:59;100911.25;;;13.97;20.20
9415;BME280;4746;35.664;139.738;2024-03-22T12:19:28;100900.91;;;13.88;20.29
9415;BME280;4746;35.664;139.738;2024-03-22T12:21:56;100898.31;;;13.84;20.42
9415;BME280;4746;35.664;139.738;2024-03-22T12:24:24;100915.50;;;13.83;20.56
9415;BME280;4746;35.664;139.738;2024-03-22T12:26:52;100920.63;;;13.80;20.65
9415;BME280;4746;35.664;139.738;2024-03-22T12:29:21;100916.31;;;13.79;20.51
9415;BME280;4746;35.664;139.738;2024-03-22T12:31:49;100918.03;;;13.80;21.24
9415;BME280;4746;35.664;139.738;2024-03-22T12:34:19;100931.78;;;13.79;20.81
9415;BME280;4746;35.664;139.738;2024-03-22T12:36:47;100928.31;;;13.71;21.19
9415;BME280;4746;35.664;139.738;2024-03-22T12:39:14;100921.44;;;13.70;21.08
9415;BME280;4746;35.664;139.738;2024-03-22T12:41:43;100919.72;;;13.69;21.42
9415;BME280;4746;35.664;139.738;2024-03-22T12:44:11;100923.16;;;13.71;21.29
9415;BME280;4746;35.664;139.738;2024-03-22T12:46:42;100939.47;;;13.70;21.23
9415;BME280;4746;35.664;139.738;2024-03-22T12:49:12;100936.88;;;13.67;21.31
9415;BME280;4746;35.664;139.738;2024-03-22T12:51:39;100930.81;;;13.62;21.15
9415;BME280;4746;35.664;139.738;2024-03-22T12:54:09;100953.13;;;13.60;21.29
9415;BME280;4746;35.664;139.738;2024-03-22T12:56:36;100962.56;;;13.55;21.25
9415;BME280;4746;35.664;139.738;2024-03-22T12:59:08;100965.94;;;13.51;21.51